sensor_id;sensor_type;location;lat;lon;timestamp;pressure;altitude;pressure_sealevel;temperature;humidity
58668;BME280;59852;43.086;25.634;2023-07-02T00:02:08;97999.09;;;21.92;67.16
58668;BME280;59852;43.086;25.634;2023-07-02T00:04:34;98003.16;;;21.82;67.79
58668;BME280;59852;43.086;25.634;2023-07-02T00:07:00;97989.22;;;21.80;67.93
58668;BME280;59852;43.086;25.634;2023-07-02T00:09:25;97995.41;;;21.87;66.81
58668;BME280;59852;43.086;25.634;2023-07-02T00:11:50;97984.38;;;21.96;67.06
58668;BME280;59852;43.086;25.634;2023-07-02T00:14:15;97980.47;;;21.92;66.62
58668;BME280;59852;43.086;25.634;2023-07-02T00:16:43;97976.53;;;21.75;67.07
58668;BME280;59852;43.086;25.634;2023-07-02T00:19:09;97984.06;;;21.65;67.67
58668;BME280;59852;43.086;25.634;2023-07-02T00:21:34;97975.63;;;21.55;68.07
58668;BME280;59852;43.086;25.634;2023-07-02T00:24:02;97977.94;;;21.71;67.81
58668;BME280;59852;43.086;25.634;2023-07-02T00:26:27;97984.44;;;21.62;67.49
58668;BME280;59852;43.086;25.634;2023-07-02T00:28:54;97978.09;;;21.56;67.48
58668;BME280;59852;43.086;25.634;2023-07-02T00:31:19;97970.34;;;21.68;67.84
58668;BME280;59852;43.086;25.634;2023-07-02T00:33:45;97973.59;;;21.57;67.75
58668;BME280;59852;43.086;25.634;2023-07-02T00:36:10;97982.59;;;21.56;67.49
58668;BME280;59852;43.086;25.634;2023-07-02T00:38:43;97979.13;;;21.55;67.09
58668;BME280;59852;43.086;25.634;2023-07-02T00:41:09;97975.53;;;21.35;67.64
58668;BME280;59852;43.086;25.634;2023-07-02T00:43:35;97976.22;;;21.50;67.17
58668;BME280;59852;43.086;25.634;2023-07-02T00:46:00;97971.25;;;21.34;67.89
58668;BME280;59852;43.086;25.634;2023-07-02T00:48:25;97976.69;;;21.26;68.54
58668;BME280;59852;43.086;25.634;2023-07-02T00:50:51;97980.88;;;21.13;68.78
58668;BME280;59852;43.086;25.634;2023-07-02T00:53:17;97978.22;;;21.13;69.23
58668;BME280;59852;43.086;25.634;2023-07-02T00:55:42;97973.56;;;21.22;68.74
58668;BME280;59852;43.086;25.634;2023-07-02T00:58:08;97966.03;;;21.26;68.74
58668;BME280;59852;43.086;25.634;2023-07-02T01:00:34;97969.88;;;21.16;68.84
58668;BME280;59852;43.086;25.634;2023-07-02T01:03:00;97969.41;;;21.34;68.59
58668;BME280;59852;43.086;25.634;2023-07-02T01:05:26;97972.00;;;21.28;68.53
58668;BME280;59852;43.086;25.634;2023-07-02T01:07:52;97970.16;;;21.28;68.89
58668;BME280;59852;43.086;25.634;2023-07-02T01:10:17;97970.22;;;21.41;68.78
58668;BME280;59852;43.086;25.634;2023-07-02T01:12:42;97970.78;;;21.30;68.75
58668;BME280;59852;43.086;25.634;2023-07-02T01:15:09;97976.72;;;21.32;68.49
58668;BME280;59852;43.086;25.634;2023-07-02T01:17:34;97971.47;;;21.11;69.07
58668;BME280;59852;43.086;25.634;2023-07-02T01:20:05;97975.81;;;21.18;69.29
58668;BME280;59852;43.086;25.634;2023-07-02T01:22:33;97970.03;;;21.08;69.82
58668;BME280;59852;43.086;25.634;2023-07-02T01:24:59;97974.72;;;21.06;69.70
58668;BME280;59852;43.086;25.634;2023-07-02T01:27:27;97965.63;;;20.94;69.88
58668;BME280;59852;43.086;25.634;2023-07-02T01:29:52;97966.13;;;21.04;69.96
58668;BME280;59852;43.086;25.634;2023-07-02T01:32:18;97965.72;;;21.07;70.58
58668;BME280;59852;43.086;25.634;2023-07-02T01:34:43;97968.13;;;21.02;70.41
58668;BME280;59852;43.086;25.634;2023-07-02T01:37:09;97961.16;;;21.01;70.41
58668;BME280;59852;43.086;25.634;2023-07-02T01:39:34;97959.53;;;20.72;70.85
58668;BME280;59852;43.086;25.634;2023-07-02T01:42:10;97964.47;;;20.75;71.06
58668;BME280;59852;43.086;25.634;2023-07-02T01:44:36;97970.16;;;20.72;70.74
58668;BME280;59852;43.086;25.634;2023-07-02T01:47:02;97974.63;;;20.65;70.68
58668;BME280;59852;43.086;25.634;2023-07-02T01:49:27;97971.28;;;20.56;70.99
58668;BME280;59852;43.086;25.634;2023-07-02T01:51:55;97978.16;;;20.51;70.40
58668;BME280;59852;43.086;25.634;2023-07-02T01:54:21;97973.13;;;20.41;70.47
58668;BME280;59852;43.086;25.634;2023-07-02T01:56:47;97969.47;;;20.63;70.57
58668;BME280;59852;43.086;25.634;2023-07-02T01:59:12;97974.28;;;20.75;69.56
58668;BME280;59852;43.086;25.634;2023-07-02T02:01:38;97967.81;;;20.41;69.92
58668;BME280;59852;43.086;25.634;2023-07-02T02:04:07;97961.25;;;20.37;70.63
58668;BME280;59852;43.086;25.634;2023-07-02T02:06:32;97968.13;;;20.46;71.10
58668;BME280;59852;43.086;25.634;2023-07-02T02:08:58;97969.03;;;20.39;71.49
58668;BME280;59852;43.086;25.634;2023-07-02T02:11:24;97970.25;;;20.36;71.79
58668;BME280;59852;43.086;25.634;2023-07-02T02:13:49;97977.00;;;20.39;72.29
58668;BME280;59852;43.086;25.634;2023-07-02T02:16:14;97971.63;;;20.32;72.20
58668;BME280;59852;43.086;25.634;2023-07-02T02:18:40;97976.00;;;20.40;72.38
58668;BME280;59852;43.086;25.634;2023-07-02T02:21:05;97970.59;;;20.33;72.44
58668;BME280;59852;43.086;25.634;2023-07-02T02:23:31;97971.44;;;20.33;73.40
58668;BME280;59852;43.086;25.634;2023-07-02T02:25:56;97978.75;;;20.46;73.80
58668;BME280;59852;43.086;25.634;2023-07-02T02:28:22;97966.38;;;20.39;73.41
58668;BME280;59852;43.086;25.634;2023-07-02T02:30:47;97972.06;;;20.14;74.48
58668;BME280;59852;43.086;25.634;2023-07-02T02:33:12;97969.06;;;20.02;74.25
58668;BME280;59852;43.086;25.634;2023-07-02T02:35:38;97970.38;;;20.07;74.15
58668;BME280;59852;43.086;25.634;2023-07-02T02:38:03;97975.78;;;19.98;73.67
58668;BME280;59852;43.086;25.634;2023-07-02T02:40:29;97970.50;;;19.84;73.90
58668;BME280;59852;43.086;25.634;2023-07-02T02:42:54;97961.81;;;19.90;74.28
58668;BME280;59852;43.086;25.634;2023-07-02T02:45:20;97965.41;;;20.03;74.37
58668;BME280;59852;43.086;25.634;2023-07-02T02:47:46;97972.38;;;20.04;74.27
58668;BME280;59852;43.086;25.634;2023-07-02T02:50:12;97969.88;;;19.82;74.93
58668;BME280;59852;43.086;25.634;2023-07-02T02:52:37;97976.44;;;19.86;74.97
58668;BME280;59852;43.086;25.634;2023-07-02T02:55:05;97967.72;;;19.70;75.88
58668;BME280;59852;43.086;25.634;2023-07-02T02:57:31;97972.09;;;19.63;76.35
58668;BME280;59852;43.086;25.634;2023-07-02T02:59:56;97970.44;;;19.77;75.36
58668;BME280;59852;43.086;25.634;2023-07-02T03:02:22;97972.91;;;19.79;74.58
58668;BME280;59852;43.086;25.634;2023-07-02T03:04:47;97981.75;;;19.86;73.85
58668;BME280;59852;43.086;25.634;2023-07-02T03:07:14;97980.75;;;19.87;73.64
58668;BME280;59852;43.086;25.634;2023-07-02T03:09:39;97993.22;;;19.86;74.19
58668;BME280;59852;43.086;25.634;2023-07-02T03:12:05;97990.91;;;19.83;74.47
58668;BME280;59852;43.086;25.634;2023-07-02T03:14:30;97989.19;;;19.75;74.65
58668;BME280;59852;43.086;25.634;2023-07-02T03:16:55;97979.53;;;19.68;75.48
58668;BME280;59852;43.086;25.634;2023-07-02T03:19:21;97984.75;;;19.97;74.90
58668;BME280;59852;43.086;25.634;2023-07-02T03:21:46;97976.56;;;19.77;75.71
58668;BME280;59852;43.086;25.634;2023-07-02T03:24:11;97983.44;;;19.72;76.40
58668;BME280;59852;43.086;25.634;2023-07-02T03:26:39;97985.59;;;19.83;76.20
58668;BME280;59852;43.086;25.634;2023-07-02T03:29:04;97984.63;;;20.05;75.20
58668;BME280;59852;43.086;25.634;2023-07-02T03:31:29;97985.16;;;19.80;75.84
58668;BME280;59852;43.086;25.634;2023-07-02T03:33:55;97985.31;;;19.93;76.06
58668;BME280;59852;43.086;25.634;2023-07-02T03:36:20;97988.56;;;20.10;75.80
58668;BME280;59852;43.086;25.634;2023-07-02T03:38:45;97986.31;;;20.28;75.02
58668;BME280;59852;43.086;25.634;2023-07-02T03:41:11;97985.69;;;19.90;77.37
58668;BME280;59852;43.086;25.634;2023-07-02T03:43:36;97989.50;;;20.23;75.79
58668;BME280;59852;43.086;25.634;2023-07-02T03:46:01;97997.66;;;20.00;77.68
58668;BME280;59852;43.086;25.634;2023-07-02T03:48:27;98005.72;;;19.92;78.51
58668;BME280;59852;43.086;25.634;2023-07-02T03:50:52;98009.91;;;20.01;77.96
58668;BME280;59852;43.086;25.634;2023-07-02T03:53:17;98018.41;;;20.12;77.91
58668;BME280;59852;43.086;25.634;2023-07-02T03:55:43;98030.97;;;20.24;77.45
58668;BME280;59852;43.086;25.634;2023-07-02T03:58:08;98020.88;;;20.34;76.24
58668;BME280;59852;43.086;25.634;2023-07-02T04:00:33;98025.00;;;20.37;75.99
58668;BME280;59852;43.086;25.634;2023-07-02T04:02:59;98016.88;;;20.60;75.25
58668;BME280;59852;43.086;25.634;2023-07-02T04:05:24;98018.88;;;20.79;74.59
58668;BME280;59852;43.086;25.634;2023-07-02T04:07:49;98013.38;;;20.81;74.40
58668;BME280;59852;43.086;25.634;2023-07-02T04:10:15;98007.53;;;20.92;74.17
58668;BME280;59852;43.086;25.634;2023-07-02T04:12:40;98013.91;;;20.33;76.32
58668;BME280;59852;43.086;25.634;2023-07-02T04:15:06;98018.13;;;20.64;75.28
58668;BME280;59852;43.086;25.634;2023-07-02T04:17:31;98016.03;;;20.81;74.58
58668;BME280;59852;43.086;25.634;2023-07-02T04:19:57;98018.56;;;20.89;74.08
58668;BME280;59852;43.086;25.634;2023-07-02T04:22:22;98015.88;;;20.89;74.19
58668;BME280;59852;43.086;25.634;2023-07-02T04:24:48;98024.56;;;20.98;74.59
58668;BME280;59852;43.086;25.634;2023-07-02T04:27:14;98035.75;;;21.21;72.83
58668;BME280;59852;43.086;25.634;2023-07-02T04:29:42;98035.81;;;21.00;73.59
58668;BME280;59852;43.086;25.634;2023-07-02T04:32:08;98038.41;;;21.21;72.83
58668;BME280;59852;43.086;25.634;2023-07-02T04:34:33;98042.41;;;21.32;72.63
58668;BME280;59852;43.086;25.634;2023-07-02T04:37:00;98048.31;;;21.27;72.77
58668;BME280;59852;43.086;25.634;2023-07-02T04:39:25;98051.03;;;21.34;72.46
58668;BME280;59852;43.086;25.634;2023-07-02T04:41:50;98060.13;;;21.53;72.43
58668;BME280;59852;43.086;25.634;2023-07-02T04:44:17;98063.63;;;21.53;72.39
58668;BME280;59852;43.086;25.634;2023-07-02T04:46:43;98071.44;;;21.55;72.25
58668;BME280;59852;43.086;25.634;2023-07-02T04:49:08;98062.63;;;21.54;72.05
58668;BME280;59852;43.086;25.634;2023-07-02T04:51:33;98062.69;;;21.67;72.02
58668;BME280;59852;43.086;25.634;2023-07-02T04:53:59;98063.56;;;21.74;71.13
58668;BME280;59852;43.086;25.634;2023-07-02T04:56:24;98058.69;;;21.85;71.29
58668;BME280;59852;43.086;25.634;2023-07-02T04:58:49;98060.94;;;21.88;71.28
58668;BME280;59852;43.086;25.634;2023-07-02T05:01:15;98063.75;;;21.73;72.17
58668;BME280;59852;43.086;25.634;2023-07-02T05:03:40;98060.72;;;21.20;73.60
58668;BME280;59852;43.086;25.634;2023-07-02T05:06:05;98062.78;;;21.87;71.98
58668;BME280;59852;43.086;25.634;2023-07-02T05:08:31;98063.53;;;22.09;70.49
58668;BME280;59852;43.086;25.634;2023-07-02T05:10:56;98068.06;;;22.15;70.10
58668;BME280;59852;43.086;25.634;2023-07-02T05:13:21;98071.50;;;22.09;70.72
58668;BME280;59852;43.086;25.634;2023-07-02T05:15:47;98074.56;;;21.65;71.84
58668;BME280;59852;43.086;25.634;2023-07-02T05:18:12;98067.78;;;22.03;70.89
58668;BME280;59852;43.086;25.634;2023-07-02T05:20:38;98066.84;;;22.18;70.24
58668;BME280;59852;43.086;25.634;2023-07-02T05:23:03;98080.00;;;22.39;69.66
58668;BME280;59852;43.086;25.634;2023-07-02T05:25:28;98077.28;;;22.19;70.52
58668;BME280;59852;43.086;25.634;2023-07-02T05:27:53;98086.97;;;22.33;69.92
58668;BME280;59852;43.086;25.634;2023-07-02T05:30:19;98082.34;;;22.62;69.03
58668;BME280;59852;43.086;25.634;2023-07-02T05:32:44;98082.97;;;22.64;68.14
58668;BME280;59852;43.086;25.634;2023-07-02T05:35:10;98085.56;;;22.51;68.51
58668;BME280;59852;43.086;25.634;2023-07-02T05:37:35;98080.31;;;22.10;70.44
58668;BME280;59852;43.086;25.634;2023-07-02T05:40:00;98071.91;;;22.74;68.12
58668;BME280;59852;43.086;25.634;2023-07-02T05:42:26;98069.47;;;22.99;67.06
58668;BME280;59852;43.086;25.634;2023-07-02T05:44:51;98068.03;;;23.09;66.59
58668;BME280;59852;43.086;25.634;2023-07-02T05:47:16;98068.25;;;23.08;66.24
58668;BME280;59852;43.086;25.634;2023-07-02T05:49:42;98071.53;;;22.90;67.21
58668;BME280;59852;43.086;25.634;2023-07-02T05:52:07;98077.47;;;22.99;66.77
58668;BME280;59852;43.086;25.634;2023-07-02T05:54:33;98083.84;;;22.84;67.00
58668;BME280;59852;43.086;25.634;2023-07-02T05:56:58;98079.00;;;22.33;69.69
58668;BME280;59852;43.086;25.634;2023-07-02T05:59:23;98081.72;;;22.67;69.08
58668;BME280;59852;43.086;25.634;2023-07-02T06:01:49;98081.53;;;22.61;69.75
58668;BME280;59852;43.086;25.634;2023-07-02T06:04:14;98083.22;;;22.96;67.12
58668;BME280;59852;43.086;25.634;2023-07-02T06:06:40;98092.03;;;23.09;67.14
58668;BME280;59852;43.086;25.634;2023-07-02T06:09:05;98086.69;;;22.89;68.33
58668;BME280;59852;43.086;25.634;2023-07-02T06:11:30;98083.31;;;22.48;67.50
58668;BME280;59852;43.086;25.634;2023-07-02T06:13:56;98082.00;;;22.85;68.27
58668;BME280;59852;43.086;25.634;2023-07-02T06:16:21;98076.25;;;22.88;67.38
58668;BME280;59852;43.086;25.634;2023-07-02T06:18:46;98090.22;;;23.03;67.69
58668;BME280;59852;43.086;25.634;2023-07-02T06:21:12;98088.34;;;23.37;66.68
58668;BME280;59852;43.086;25.634;2023-07-02T06:23:41;98084.81;;;23.76;64.47
58668;BME280;59852;43.086;25.634;2023-07-02T06:26:06;98083.78;;;23.90;63.82
58668;BME280;59852;43.086;25.634;2023-07-02T06:28:32;98078.97;;;23.99;63.52
58668;BME280;59852;43.086;25.634;2023-07-02T06:30:57;98081.31;;;23.82;63.73
58668;BME280;59852;43.086;25.634;2023-07-02T06:33:22;98072.94;;;23.72;63.73
58668;BME280;59852;43.086;25.634;2023-07-02T06:35:48;98068.81;;;23.56;64.44
58668;BME280;59852;43.086;25.634;2023-07-02T06:38:14;98069.03;;;23.55;64.05
58668;BME280;59852;43.086;25.634;2023-07-02T06:40:39;98072.94;;;23.39;65.04
58668;BME280;59852;43.086;25.634;2023-07-02T06:43:04;98066.56;;;23.40;65.40
58668;BME280;59852;43.086;25.634;2023-07-02T06:45:30;98070.47;;;23.70;64.89
58668;BME280;59852;43.086;25.634;2023-07-02T06:47:55;98073.53;;;23.74;64.89
58668;BME280;59852;43.086;25.634;2023-07-02T06:50:20;98074.78;;;23.65;64.88
58668;BME280;59852;43.086;25.634;2023-07-02T06:52:47;98075.19;;;23.68;65.18
58668;BME280;59852;43.086;25.634;2023-07-02T06:55:12;98077.03;;;23.74;64.16
58668;BME280;59852;43.086;25.634;2023-07-02T06:57:44;98081.09;;;23.84;63.88
58668;BME280;59852;43.086;25.634;2023-07-02T07:00:10;98085.28;;;24.18;62.29
58668;BME280;59852;43.086;25.634;2023-07-02T07:02:36;98079.03;;;24.44;62.25
58668;BME280;59852;43.086;25.634;2023-07-02T07:05:01;98080.91;;;24.37;62.61
58668;BME280;59852;43.086;25.634;2023-07-02T07:07:28;98086.59;;;24.53;62.82
58668;BME280;59852;43.086;25.634;2023-07-02T07:09:53;98080.22;;;24.48;61.79
58668;BME280;59852;43.086;25.634;2023-07-02T07:12:18;98088.31;;;24.41;62.08
58668;BME280;59852;43.086;25.634;2023-07-02T07:14:44;98086.69;;;24.27;63.70
58668;BME280;59852;43.086;25.634;2023-07-02T07:17:09;98089.44;;;24.07;62.99
58668;BME280;59852;43.086;25.634;2023-07-02T07:19:34;98093.41;;;23.91;63.18
58668;BME280;59852;43.086;25.634;2023-07-02T07:22:00;98099.28;;;24.13;63.21
58668;BME280;59852;43.086;25.634;2023-07-02T07:24:25;98096.78;;;24.25;63.40
58668;BME280;59852;43.086;25.634;2023-07-02T07:26:51;98091.81;;;24.35;62.13
58668;BME280;59852;43.086;25.634;2023-07-02T07:29:16;98092.25;;;24.39;63.11
58668;BME280;59852;43.086;25.634;2023-07-02T07:31:41;98086.09;;;24.31;62.02
58668;BME280;59852;43.086;25.634;2023-07-02T07:34:07;98090.97;;;24.41;62.44
58668;BME280;59852;43.086;25.634;2023-07-02T07:36:32;98078.31;;;24.17;61.46
58668;BME280;59852;43.086;25.634;2023-07-02T07:38:57;98081.72;;;23.79;62.20
58668;BME280;59852;43.086;25.634;2023-07-02T07:41:23;98085.63;;;23.90;65.44
58668;BME280;59852;43.086;25.634;2023-07-02T07:43:48;98085.63;;;23.90;61.25
58668;BME280;59852;43.086;25.634;2023-07-02T07:46:13;98082.16;;;23.83;64.67
58668;BME280;59852;43.086;25.634;2023-07-02T07:48:39;98086.06;;;23.80;64.04
58668;BME280;59852;43.086;25.634;2023-07-02T07:51:04;98082.75;;;23.85;63.91
58668;BME280;59852;43.086;25.634;2023-07-02T07:53:29;98086.84;;;23.87;63.41
58668;BME280;59852;43.086;25.634;2023-07-02T07:55:55;98088.47;;;23.88;63.94
58668;BME280;59852;43.086;25.634;2023-07-02T07:58:20;98091.34;;;24.00;64.02
58668;BME280;59852;43.086;25.634;2023-07-02T08:00:45;98098.94;;;23.96;63.74
58668;BME280;59852;43.086;25.634;2023-07-02T08:03:11;98094.69;;;23.69;66.26
58668;BME280;59852;43.086;25.634;2023-07-02T08:05:36;98102.69;;;23.82;67.98
58668;BME280;59852;43.086;25.634;2023-07-02T08:08:01;98103.91;;;23.86;65.23
58668;BME280;59852;43.086;25.634;2023-07-02T08:10:27;98096.09;;;23.91;65.00
58668;BME280;59852;43.086;25.634;2023-07-02T08:12:52;98100.63;;;23.91;65.16
58668;BME280;59852;43.086;25.634;2023-07-02T08:15:18;98105.53;;;23.94;64.52
58668;BME280;59852;43.086;25.634;2023-07-02T08:17:44;98109.03;;;23.94;66.70
58668;BME280;59852;43.086;25.634;2023-07-02T08:20:09;98106.72;;;23.98;67.37
58668;BME280;59852;43.086;25.634;2023-07-02T08:22:35;98101.81;;;24.01;65.91
58668;BME280;59852;43.086;25.634;2023-07-02T08:25:02;98097.69;;;23.99;68.95
58668;BME280;59852;43.086;25.634;2023-07-02T08:27:27;98096.31;;;23.90;67.89
58668;BME280;59852;43.086;25.634;2023-07-02T08:29:52;98084.38;;;23.92;70.32
58668;BME280;59852;43.086;25.634;2023-07-02T08:32:18;98074.94;;;23.90;71.42
58668;BME280;59852;43.086;25.634;2023-07-02T08:34:43;98074.50;;;23.93;72.75
58668;BME280;59852;43.086;25.634;2023-07-02T08:37:08;98064.41;;;24.01;70.04
58668;BME280;59852;43.086;25.634;2023-07-02T08:39:34;98059.66;;;24.03;69.82
58668;BME280;59852;43.086;25.634;2023-07-02T08:42:01;98062.34;;;23.97;67.36
58668;BME280;59852;43.086;25.634;2023-07-02T08:44:26;98071.63;;;23.94;65.93
58668;BME280;59852;43.086;25.634;2023-07-02T08:46:52;98086.63;;;23.95;65.97
58668;BME280;59852;43.086;25.634;2023-07-02T08:49:20;98082.75;;;23.85;69.09
58668;BME280;59852;43.086;25.634;2023-07-02T08:51:46;98089.16;;;23.70;71.51
58668;BME280;59852;43.086;25.634;2023-07-02T08:54:11;98091.19;;;23.75;71.35
58668;BME280;59852;43.086;25.634;2023-07-02T08:56:36;98096.91;;;23.85;69.03
58668;BME280;59852;43.086;25.634;2023-07-02T08:59:03;98087.44;;;23.96;68.05
58668;BME280;59852;43.086;25.634;2023-07-02T09:01:28;98092.34;;;23.99;67.50
58668;BME280;59852;43.086;25.634;2023-07-02T09:03:58;98094.00;;;24.00;69.85
58668;BME280;59852;43.086;25.634;2023-07-02T09:06:24;98093.94;;;24.20;70.21
58668;BME280;59852;43.086;25.634;2023-07-02T09:08:49;98088.75;;;24.25;66.53
58668;BME280;59852;43.086;25.634;2023-07-02T09:11:15;98088.47;;;24.46;67.70
58668;BME280;59852;43.086;25.634;2023-07-02T09:13:49;98089.53;;;24.77;66.50
58668;BME280;59852;43.086;25.634;2023-07-02T09:16:24;98086.69;;;24.72;64.51
58668;BME280;59852;43.086;25.634;2023-07-02T09:19:01;98087.63;;;24.52;65.00
58668;BME280;59852;43.086;25.634;2023-07-02T09:24:15;98091.78;;;24.48;66.04
58668;BME280;59852;43.086;25.634;2023-07-02T09:26:47;98091.56;;;24.50;64.98
58668;BME280;59852;43.086;25.634;2023-07-02T09:29:18;98091.50;;;24.56;63.62
58668;BME280;59852;43.086;25.634;2023-07-02T09:31:44;98090.22;;;24.66;63.45
58668;BME280;59852;43.086;25.634;2023-07-02T09:34:10;98091.09;;;24.59;63.54
58668;BME280;59852;43.086;25.634;2023-07-02T09:36:36;98097.41;;;24.65;62.52
58668;BME280;59852;43.086;25.634;2023-07-02T09:39:06;98099.53;;;24.56;66.34
58668;BME280;59852;43.086;25.634;2023-07-02T09:41:31;98109.41;;;24.56;65.58
58668;BME280;59852;43.086;25.634;2023-07-02T09:43:56;98100.81;;;24.47;59.89
58668;BME280;59852;43.086;25.634;2023-07-02T09:46:22;98099.47;;;24.70;55.97
58668;BME280;59852;43.086;25.634;2023-07-02T09:48:47;98098.91;;;24.54;58.44
58668;BME280;59852;43.086;25.634;2023-07-02T09:51:13;98104.72;;;24.83;57.20
58668;BME280;59852;43.086;25.634;2023-07-02T09:53:39;98098.59;;;24.76;55.97
58668;BME280;59852;43.086;25.634;2023-07-02T09:56:04;98099.13;;;24.59;56.97
58668;BME280;59852;43.086;25.634;2023-07-02T09:58:30;98091.09;;;24.59;57.37
58668;BME280;59852;43.086;25.634;2023-07-02T10:00:56;98093.72;;;24.66;58.93
58668;BME280;59852;43.086;25.634;2023-07-02T10:03:29;98095.75;;;24.71;60.98
58668;BME280;59852;43.086;25.634;2023-07-02T10:06:02;98095.69;;;24.77;62.05
58668;BME280;59852;43.086;25.634;2023-07-02T10:08:27;98098.09;;;24.85;57.69
58668;BME280;59852;43.086;25.634;2023-07-02T10:11:05;98084.84;;;24.97;56.78
58668;BME280;59852;43.086;25.634;2023-07-02T10:13:31;98086.91;;;25.02;60.32
58668;BME280;59852;43.086;25.634;2023-07-02T10:16:06;98089.97;;;25.05;56.79
58668;BME280;59852;43.086;25.634;2023-07-02T10:18:31;98085.72;;;25.23;56.02
58668;BME280;59852;43.086;25.634;2023-07-02T10:20:56;98090.91;;;25.42;54.43
58668;BME280;59852;43.086;25.634;2023-07-02T10:23:32;98087.94;;;25.51;54.81
58668;BME280;59852;43.086;25.634;2023-07-02T10:25:58;98082.41;;;25.45;54.96
58668;BME280;59852;43.086;25.634;2023-07-02T10:28:23;98075.69;;;25.36;52.84
58668;BME280;59852;43.086;25.634;2023-07-02T10:30:51;98073.69;;;25.32;53.78
58668;BME280;59852;43.086;25.634;2023-07-02T10:33:18;98075.06;;;25.41;53.32
58668;BME280;59852;43.086;25.634;2023-07-02T10:35:45;98068.72;;;25.97;52.41
58668;BME280;59852;43.086;25.634;2023-07-02T10:38:21;98071.31;;;26.03;52.03
58668;BME280;59852;43.086;25.634;2023-07-02T10:40:53;98072.47;;;26.44;51.82
58668;BME280;59852;43.086;25.634;2023-07-02T10:43:29;98073.75;;;26.23;51.31
58668;BME280;59852;43.086;25.634;2023-07-02T10:45:55;98065.94;;;26.40;51.65
58668;BME280;59852;43.086;25.634;2023-07-02T10:48:20;98070.41;;;26.28;51.71
58668;BME280;59852;43.086;25.634;2023-07-02T10:50:46;98063.47;;;26.39;51.70
58668;BME280;59852;43.086;25.634;2023-07-02T10:53:15;98056.44;;;26.56;51.54
58668;BME280;59852;43.086;25.634;2023-07-02T10:55:41;98058.03;;;26.45;51.70
58668;BME280;59852;43.086;25.634;2023-07-02T10:58:07;98052.59;;;26.64;51.64
58668;BME280;59852;43.086;25.634;2023-07-02T11:00:33;98056.34;;;26.74;50.25
58668;BME280;59852;43.086;25.634;2023-07-02T11:02:58;98049.91;;;26.34;50.98
58668;BME280;59852;43.086;25.634;2023-07-02T11:05:24;98058.06;;;26.57;50.06
58668;BME280;59852;43.086;25.634;2023-07-02T11:07:50;98051.22;;;26.73;49.59
58668;BME280;59852;43.086;25.634;2023-07-02T11:10:22;98045.84;;;26.61;47.77
58668;BME280;59852;43.086;25.634;2023-07-02T11:12:48;98042.03;;;26.80;47.45
58668;BME280;59852;43.086;25.634;2023-07-02T11:15:13;98044.06;;;26.97;46.54
58668;BME280;59852;43.086;25.634;2023-07-02T11:17:39;98050.56;;;27.01;48.06
58668;BME280;59852;43.086;25.634;2023-07-02T11:20:08;98044.19;;;27.13;48.15
58668;BME280;59852;43.086;25.634;2023-07-02T11:22:34;98045.25;;;27.12;48.94
58668;BME280;59852;43.086;25.634;2023-07-02T11:25:18;98044.91;;;27.09;49.47
58668;BME280;59852;43.086;25.634;2023-07-02T11:27:47;98039.88;;;27.48;48.02
58668;BME280;59852;43.086;25.634;2023-07-02T11:30:12;98034.78;;;26.81;49.37
58668;BME280;59852;43.086;25.634;2023-07-02T11:32:50;98026.94;;;27.09;48.31
58668;BME280;59852;43.086;25.634;2023-07-02T11:35:16;98028.22;;;27.54;48.13
58668;BME280;59852;43.086;25.634;2023-07-02T11:37:42;98023.53;;;27.37;47.16
58668;BME280;59852;43.086;25.634;2023-07-02T11:40:08;98026.66;;;26.87;47.39
58668;BME280;59852;43.086;25.634;2023-07-02T11:42:34;98026.13;;;27.09;46.89
58668;BME280;59852;43.086;25.634;2023-07-02T11:44:59;98031.84;;;27.36;47.13
58668;BME280;59852;43.086;25.634;2023-07-02T11:47:24;98034.75;;;26.57;49.81
58668;BME280;59852;43.086;25.634;2023-07-02T11:49:52;98034.56;;;26.41;50.94
58668;BME280;59852;43.086;25.634;2023-07-02T11:52:17;98026.00;;;26.32;50.17
58668;BME280;59852;43.086;25.634;2023-07-02T11:54:43;98032.34;;;26.38;50.65
58668;BME280;59852;43.086;25.634;2023-07-02T11:57:08;98024.25;;;26.56;48.61
58668;BME280;59852;43.086;25.634;2023-07-02T11:59:33;98026.56;;;26.94;45.37
58668;BME280;59852;43.086;25.634;2023-07-02T12:01:59;98015.25;;;27.04;45.51
58668;BME280;59852;43.086;25.634;2023-07-02T12:04:24;98027.66;;;27.05;47.03
58668;BME280;59852;43.086;25.634;2023-07-02T12:06:49;98035.31;;;26.29;47.43
58668;BME280;59852;43.086;25.634;2023-07-02T12:09:15;98041.69;;;26.17;48.77
58668;BME280;59852;43.086;25.634;2023-07-02T12:11:41;98044.28;;;26.05;48.00
58668;BME280;59852;43.086;25.634;2023-07-02T12:14:06;98046.47;;;26.45;47.50
58668;BME280;59852;43.086;25.634;2023-07-02T12:16:32;98047.44;;;26.50;48.74
58668;BME280;59852;43.086;25.634;2023-07-02T12:18:57;98053.88;;;26.13;49.58
58668;BME280;59852;43.086;25.634;2023-07-02T12:21:22;98053.38;;;26.04;51.43
58668;BME280;59852;43.086;25.634;2023-07-02T12:23:48;98040.09;;;26.27;50.49
58668;BME280;59852;43.086;25.634;2023-07-02T12:26:13;98033.09;;;26.26;49.18
58668;BME280;59852;43.086;25.634;2023-07-02T12:28:38;98018.63;;;26.46;50.96
58668;BME280;59852;43.086;25.634;2023-07-02T12:31:04;98018.38;;;27.01;48.18
58668;BME280;59852;43.086;25.634;2023-07-02T12:33:29;98019.00;;;27.26;46.67
58668;BME280;59852;43.086;25.634;2023-07-02T12:35:54;98013.00;;;27.59;46.97
58668;BME280;59852;43.086;25.634;2023-07-02T12:38:20;98016.09;;;27.16;46.91
58668;BME280;59852;43.086;25.634;2023-07-02T12:40:45;98018.78;;;27.16;47.21
58668;BME280;59852;43.086;25.634;2023-07-02T12:43:11;98015.94;;;27.58;47.34
58668;BME280;59852;43.086;25.634;2023-07-02T12:45:36;98019.78;;;27.85;46.07
58668;BME280;59852;43.086;25.634;2023-07-02T12:48:01;98017.63;;;27.99;45.44